Terminal Aerodrome Forecast
Issued by NWS Memphis, TN

Home | Current Version | Previous Version | Text Only | Print | Product List | Glossary On
Versions: 1 2 3 4 5 6 7 8 9 10 11 12 13 14 15
882
FTUS44 KMEG 230929 AAB
TAFMKL
TAF AMD
KMKL 230929Z 2309/2406 00000KT 1SM BR FEW001 BKN250
      TEMPO 2309/2313 1/4SM FG VV002
     FM231300 VRB03KT 3SM BR FEW010 SCT250
     FM231500 04005KT P6SM SCT035 SCT250
     FM240000 VRB03KT P6SM SCT250=

USA.gov is the U.S. government's official web portal to all federal, state and local government web resources and services.